Thursday, July 2, 2015, 10:40 PM EDT

KSBY, Salisbury-wicomico Cty Reg

Location: Salisbury, MD, United States Lat: 38.333
Local Time: 10:40 PM EDT ( 2:40 GMT) Lon: -75.5
Time Zone: US/Eastern Elev: 52 ft

Show me the last for .
Show Decoded

2015-07-02 21:22 METAR KSBY 030122Z 02003KT 6SM BR SCT008 21/19 A2986 RMK AO2 T02060194 =
2015-07-02 21:03 METAR KSBY 030103Z 05004KT 6SM BR BKN008 21/19 A2985 RMK AO2 CIG 007V012
                 T02110194 =
2015-07-02 20:54 METAR KSBY 030054Z 03003KT 6SM BR BKN010 21/20 A2985 RMK AO2 CIG 007V012 SLP110
                 T02110200 =
2015-07-02 19:54 METAR KSBY 022354Z 34006KT 5SM BR SCT012 BKN065 BKN080 22/19 A2986 RMK AO2
                 SLP115 60000 T02170194 10228 20217 55001 =
2015-07-02 19:07 METAR KSBY 022307Z 01004KT 6SM HZ SCT020 BKN060 22/19 A2986 =
2015-07-02 18:54 METAR KSBY 022254Z 36005KT 6SM HZ BKN019 OVC060 22/19 A2986 RMK AO2 RAB18E28
                 SLP114 P0000 T02220194 =
2015-07-02 18:01 METAR KSBY 022201Z 04005KT 5SM HZ OVC016 22/19 A2986 =
2015-07-02 17:54 METAR KSBY 022154Z 04005KT 5SM BR OVC009 22/20 A2987 RMK AO2 RAE00 SLP115 P0000
                 T02220200 =
2015-07-02 17:19 METAR KSBY 022119Z 02006KT 6SM BR OVC009 22/19 A2987 RMK AO2 RAE00 P0000
                 T02170194 =
2015-07-02 17:04 METAR KSBY 022104Z 01008KT 6SM BR OVC010 22/20 A2987 RMK AO2 RAE00 P0000
                 T02170200 =
2015-07-02 16:54 METAR KSBY 022054Z 02008KT 6SM -RA BR OVC009 22/20 A2987 =
2015-07-02 15:54 METAR KSBY 021954Z 04007KT 6SM HZ OVC008 23/20 A2986 RMK AO2 SLP114 T02280200 =
2015-07-02 15:20 METAR KSBY 021920Z 06007KT 6SM HZ OVC008 23/20 A2987 RMK AO2 T02280200 =
2015-07-02 14:54 METAR KSBY 021854Z 04006KT 6SM BR OVC010 22/20 A2988 RMK AO2 SLP119 T02220200 =
2015-07-02 14:31 METAR KSBY 021831Z 05007KT 7SM OVC009 23/20 A2987 RMK AO2 LTG DSNT SE T02280200
                 =
2015-07-02 14:20 METAR KSBY 021820Z 05008KT 7SM OVC010 23/20 A2987 RMK AO2 LTG DSNT SE CIG
                 008V012 T02280200 =
2015-07-02 13:54 METAR KSBY 021754Z 02008KT 7SM OVC009 23/21 A2987 =
2015-07-02 13:16 METAR KSBY 021716Z 06007KT 8SM BKN008 23/21 A2987 RMK AO2 LTG DSNT E AND SE
                 T02330211 =
2015-07-02 12:54 METAR KSBY 021654Z 35005KT 8SM SCT007 23/21 A2987 RMK AO2 LTG DSNT E AND SE
                 SLP116 T02280206 =
2015-07-02 12:39 METAR KSBY 021639Z 03006KT 9SM SCT007 23/21 A2986 RMK AO2 LTG DSNT E AND SE
                 T02280206 =
2015-07-02 12:11 METAR KSBY 021611Z 35006KT 9SM SCT006 BKN029 22/21 A2987 RMK AO2 LTG DSNT NE-SE
                 T02220206 =
2015-07-02 11:54 METAR KSBY 021554Z 34012G21KT 10SM VCTS FEW006 SCT029 BKN041 22/20 A2986 RMK AO2
                 PK WND 33030/1520 LTG DSNT NE AND E RAB18E41 TSB19E36 SLP114 P0014 T02170200 =
2015-07-02 11:37 METAR KSBY 021537Z 32013G19KT 7SM VCTS -RA SCT007 BKN031 OVC047 21/21 A2986 RMK
                 AO2 PK WND 33030/1520 LTG DSNT N AND NE RAB18 TSB19E36 P0013 T02110206 =
2015-07-02 11:31 METAR KSBY 021531Z 32012G24KT 3SM -TSRA BR SCT007 BKN012 OVC047 21/21 A2987 RMK
                 AO2 PK WND 33030/1520 LTG DSNT N AND NE RAB18 TSB19 P0013 T02110206 =
2015-07-02 11:19 METAR KSBY 021519Z 30021G30KT 1 1/2SM -TSRA BR BKN009 BKN015 OVC024 22/22 A2985
                 RMK AO2 PK WND 27030/1517 LTG DSNT NW-E RAB18 TSB19 P0005 T02220217 =
2015-07-02 11:17 METAR KSBY 021517Z 26020G30KT 210V290 2 1/2SM VCTS BR BKN009 OVC026 23/23 A2986
                 RMK AO2 PK WND 27030/1517 LTG DSNT NW-E CIG 006V014 T02330228 =
2015-07-02 11:01 METAR KSBY 021501Z 09005KT 3SM VCTS BR BKN004 BKN011 OVC027 23/23 A2985 RMK AO2
                 LTG DSNT ALQDS T02330228 =
2015-07-02 10:54 METAR KSBY 021454Z 11003KT 4SM VCTS BR BKN009 BKN014 OVC025 23/22 A2985 RMK AO2
                 LTG DSNT ALQDS RAE1356 TSE1356B03E18 SLP111 P0000 60004 T02330222 58010 =
2015-07-02 10:46 METAR KSBY 021446Z 00000KT 4SM VCTS BR SCT007 BKN014 OVC025 23/22 A2985 RMK AO2
                 LTG DSNT ALQDS RAE1356 TSE1356B03E18 P0000 T02330222 =
2015-07-02 10:31 METAR KSBY 021431Z 00000KT 4SM BR BKN007 OVC021 23/22 A2985 RMK AO2 LTG DSNT
                 ALQDS RAE1356 TSE1356B03E18 P0000 T02330222 =
2015-07-02 10:24 METAR KSBY 021424Z 00000KT 4SM VCTS BR OVC007 23/22 A2986 RMK AO2 LTG DSNT W-NE
                 RAE1356 TSE1356B03E18 P0000 T02280217 =
2015-07-02 10:09 METAR KSBY 021409Z 00000KT 4SM TS BR OVC006 23/22 A2987 RMK AO2 LTG DSNT NW-NE
                 RAE1356 TSE1356B03 P0000 T02280222 =
2015-07-02 10:02 METAR KSBY 021402Z 36003KT 4SM VCTS BR BKN006 BKN013 OVC019 22/22 A2987 RMK AO2
                 LTG DSNT NW-NE RAE1356 TSE1356 P0000 T02220217 =
2015-07-02 09:54 METAR KSBY 021354Z 34007KT 3SM -TSRA BR BKN007 BKN013 OVC019 22/22 A2987 RMK AO2
                 LTG DSNT NW RAB29 TSB28 SLP117 P0004 T02170217 =
2015-07-02 09:52 METAR KSBY 021352Z 33006KT 3SM -TSRA BR BKN007 BKN013 OVC022 22/22 A2987 RMK AO2
                 LTG DSNT NW RAB29 TSB28 P0004 =
2015-07-02 09:45 METAR KSBY 021345Z 32008KT 2SM -TSRA BR FEW007 BKN013 OVC070 22/22 A2987 RMK AO2
                 LTG DSNT NW RAB29 TSB28 P0004 T02220217 =
2015-07-02 09:41 METAR KSBY 021341Z 29005KT 2SM TSRA BR SCT012 BKN019 OVC070 23/22 A2987 RMK AO2
                 LTG DSNT NW RAB29 TSB28 P0004 T02280217 =
2015-07-02 09:31 METAR KSBY 021331Z 00000KT 2 1/2SM TSRA BR FEW012 SCT020 BKN070 23/22 A2987 RMK
                 AO2 LTG DSNT W RAB29 TSB28 P0002 T02280217 =
2015-07-02 09:22 METAR KSBY 021322Z 00000KT 5SM VCTS BR SCT070 BKN100 23/22 A2987 RMK AO2 LTG
                 DSNT W T02280217 =
2015-07-02 08:54 METAR KSBY 021254Z 10003KT 6SM BR FEW048 SCT075 OVC110 22/21 A2986 =
2015-07-02 07:54 METAR KSBY 021154Z 00000KT 6SM BR CLR 22/20 A2988 RMK AO2 SLP121 T02220200 10222
                 20194 53005 =
2015-07-02 06:54 METAR KSBY 021054Z 00000KT 6SM BR SCT100 21/20 A2987 RMK AO2 SLP117 T02110200 =
2015-07-02 05:54 METAR KSBY 020954Z AUTO 00000KT 5SM BR FEW038 SCT100 20/19 A2987 RMK AO2 LTG
                 DSNT W SLP118 T02000189 =
2015-07-02 04:54 METAR KSBY 020854Z AUTO 00000KT 6SM BR CLR 20/19 A2987 RMK AO2 SLP115 T02000189
                 58011 =
2015-07-02 03:54 METAR KSBY 020754Z AUTO 00000KT 7SM CLR 20/19 A2988 RMK AO2 SLP120 T02000194 =
2015-07-02 02:54 METAR KSBY 020654Z AUTO 00000KT 8SM CLR 21/19 A2989 RMK AO2 SLP123 T02110194 =
2015-07-02 01:54 METAR KSBY 020554Z AUTO 32003KT 9SM CLR 22/20 A2990 =
2015-07-02 00:54 METAR KSBY 020454Z AUTO 00000KT 7SM CLR 22/21 A2990 RMK AO2 SLP128 T02220206
                 402940206 =
2015-07-01 23:54 METAR KSBY 020354Z AUTO 21003KT 9SM CLR 23/21 A2990 =
2015-07-01 22:54 METAR KSBY 020254Z AUTO 20004KT 9SM CLR 23/21 A2990 RMK AO2 SLP127 T02280206
                 51014 =

Support USWX by starting your Amazon purchase here.